sensor_id;sensor_type;location;lat;lon;timestamp;P1;durP1;ratioP1;P2;durP2;ratioP2
6497;SDS011;3282;48.358;10.958;2022-12-18T00:01:05;86.15;;;29.55;;
6497;SDS011;3282;48.358;10.958;2022-12-18T00:03:44;82.60;;;31.35;;
6497;SDS011;3282;48.358;10.958;2022-12-18T00:06:13;79.90;;;27.73;;
6497;SDS011;3282;48.358;10.958;2022-12-18T00:08:41;79.30;;;27.88;;
6497;SDS011;3282;48.358;10.958;2022-12-18T00:11:08;74.85;;;26.80;;
6497;SDS011;3282;48.358;10.958;2022-12-18T00:13:38;72.88;;;26.38;;
6497;SDS011;3282;48.358;10.958;2022-12-18T00:16:07;76.18;;;27.73;;
6497;SDS011;3282;48.358;10.958;2022-12-18T00:18:35;73.68;;;25.42;;
6497;SDS011;3282;48.358;10.958;2022-12-18T00:21:04;72.85;;;25.38;;
6497;SDS011;3282;48.358;10.958;2022-12-18T00:23:32;76.88;;;26.45;;
6497;SDS011;3282;48.358;10.958;2022-12-18T00:26:01;86.07;;;26.60;;
6497;SDS011;3282;48.358;10.958;2022-12-18T00:28:31;75.78;;;24.70;;
6497;SDS011;3282;48.358;10.958;2022-12-18T00:31:08;75.80;;;26.30;;
6497;SDS011;3282;48.358;10.958;2022-12-18T00:33:37;70.80;;;25.50;;
6497;SDS011;3282;48.358;10.958;2022-12-18T00:36:05;70.75;;;25.52;;
6497;SDS011;3282;48.358;10.958;2022-12-18T00:38:56;69.25;;;24.17;;
6497;SDS011;3282;48.358;10.958;2022-12-18T00:41:23;74.85;;;25.40;;
6497;SDS011;3282;48.358;10.958;2022-12-18T00:44:10;71.43;;;24.45;;
6497;SDS011;3282;48.358;10.958;2022-12-18T00:46:38;66.78;;;24.27;;
6497;SDS011;3282;48.358;10.958;2022-12-18T00:49:05;72.25;;;25.05;;
6497;SDS011;3282;48.358;10.958;2022-12-18T00:51:32;66.80;;;24.52;;
6497;SDS011;3282;48.358;10.958;2022-12-18T00:53:59;64.90;;;23.15;;
6497;SDS011;3282;48.358;10.958;2022-12-18T00:56:26;68.82;;;23.80;;
6497;SDS011;3282;48.358;10.958;2022-12-18T00:58:53;67.72;;;24.35;;
6497;SDS011;3282;48.358;10.958;2022-12-18T01:01:20;66.15;;;23.75;;
6497;SDS011;3282;48.358;10.958;2022-12-18T01:03:46;66.45;;;23.95;;
6497;SDS011;3282;48.358;10.958;2022-12-18T01:06:15;77.35;;;24.23;;
6497;SDS011;3282;48.358;10.958;2022-12-18T01:08:43;68.35;;;23.77;;
6497;SDS011;3282;48.358;10.958;2022-12-18T01:11:12;69.38;;;24.42;;
6497;SDS011;3282;48.358;10.958;2022-12-18T01:13:41;71.72;;;23.73;;
6497;SDS011;3282;48.358;10.958;2022-12-18T01:16:10;79.20;;;24.83;;
6497;SDS011;3282;48.358;10.958;2022-12-18T01:18:38;72.43;;;25.40;;
6497;SDS011;3282;48.358;10.958;2022-12-18T01:21:05;79.15;;;25.45;;
6497;SDS011;3282;48.358;10.958;2022-12-18T01:23:35;77.13;;;24.95;;
6497;SDS011;3282;48.358;10.958;2022-12-18T01:26:10;77.32;;;24.13;;
6497;SDS011;3282;48.358;10.958;2022-12-18T01:28:38;69.78;;;21.67;;
6497;SDS011;3282;48.358;10.958;2022-12-18T01:31:25;74.72;;;25.45;;
6497;SDS011;3282;48.358;10.958;2022-12-18T01:33:53;82.70;;;24.30;;
6497;SDS011;3282;48.358;10.958;2022-12-18T01:38:49;70.95;;;22.45;;
6497;SDS011;3282;48.358;10.958;2022-12-18T01:41:18;79.90;;;25.08;;
6497;SDS011;3282;48.358;10.958;2022-12-18T01:43:54;89.03;;;25.30;;
6497;SDS011;3282;48.358;10.958;2022-12-18T01:46:24;95.43;;;24.27;;
6497;SDS011;3282;48.358;10.958;2022-12-18T01:48:57;94.28;;;25.00;;
6497;SDS011;3282;48.358;10.958;2022-12-18T01:51:27;88.03;;;24.42;;
6497;SDS011;3282;48.358;10.958;2022-12-18T01:53:56;92.03;;;25.08;;
6497;SDS011;3282;48.358;10.958;2022-12-18T01:56:25;86.85;;;26.67;;
6497;SDS011;3282;48.358;10.958;2022-12-18T01:58:58;81.10;;;25.23;;
6497;SDS011;3282;48.358;10.958;2022-12-18T02:01:29;89.15;;;26.08;;
6497;SDS011;3282;48.358;10.958;2022-12-18T02:12:20;76.10;;;24.48;;
6497;SDS011;3282;48.358;10.958;2022-12-18T02:15:00;87.53;;;24.98;;
6497;SDS011;3282;48.358;10.958;2022-12-18T02:17:41;80.00;;;24.98;;
6497;SDS011;3282;48.358;10.958;2022-12-18T02:20:16;116.22;;;26.83;;
6497;SDS011;3282;48.358;10.958;2022-12-18T02:22:48;69.78;;;23.38;;
6497;SDS011;3282;48.358;10.958;2022-12-18T02:28:30;68.80;;;23.30;;
6497;SDS011;3282;48.358;10.958;2022-12-18T02:31:04;72.03;;;22.10;;
6497;SDS011;3282;48.358;10.958;2022-12-18T02:33:36;74.18;;;22.95;;
6497;SDS011;3282;48.358;10.958;2022-12-18T02:36:05;68.57;;;22.52;;
6497;SDS011;3282;48.358;10.958;2022-12-18T02:38:34;73.95;;;24.10;;
6497;SDS011;3282;48.358;10.958;2022-12-18T02:41:08;67.60;;;23.70;;
6497;SDS011;3282;48.358;10.958;2022-12-18T02:43:37;73.15;;;24.20;;
6497;SDS011;3282;48.358;10.958;2022-12-18T02:49:19;74.32;;;22.80;;
6497;SDS011;3282;48.358;10.958;2022-12-18T02:54:38;67.53;;;21.67;;
6497;SDS011;3282;48.358;10.958;2022-12-18T02:57:11;67.60;;;20.58;;
6497;SDS011;3282;48.358;10.958;2022-12-18T03:00:08;68.53;;;21.98;;
6497;SDS011;3282;48.358;10.958;2022-12-18T03:02:39;69.00;;;21.52;;
6497;SDS011;3282;48.358;10.958;2022-12-18T03:05:14;64.97;;;21.17;;
6497;SDS011;3282;48.358;10.958;2022-12-18T03:07:49;63.58;;;20.05;;
6497;SDS011;3282;48.358;10.958;2022-12-18T03:10:19;60.42;;;20.52;;
6497;SDS011;3282;48.358;10.958;2022-12-18T03:12:52;64.70;;;21.02;;
6497;SDS011;3282;48.358;10.958;2022-12-18T03:15:24;62.05;;;21.10;;
6497;SDS011;3282;48.358;10.958;2022-12-18T03:18:07;59.22;;;19.95;;
6497;SDS011;3282;48.358;10.958;2022-12-18T03:20:39;64.35;;;20.48;;
6497;SDS011;3282;48.358;10.958;2022-12-18T03:25:46;66.43;;;18.90;;
6497;SDS011;3282;48.358;10.958;2022-12-18T03:28:16;60.95;;;17.90;;
6497;SDS011;3282;48.358;10.958;2022-12-18T03:30:50;65.55;;;19.58;;
6497;SDS011;3282;48.358;10.958;2022-12-18T03:33:27;67.00;;;19.20;;
6497;SDS011;3282;48.358;10.958;2022-12-18T03:35:58;60.63;;;17.65;;
6497;SDS011;3282;48.358;10.958;2022-12-18T03:38:24;55.33;;;18.35;;
6497;SDS011;3282;48.358;10.958;2022-12-18T03:41:28;59.40;;;19.33;;
6497;SDS011;3282;48.358;10.958;2022-12-18T03:47:04;58.80;;;18.73;;
6497;SDS011;3282;48.358;10.958;2022-12-18T03:49:38;67.93;;;20.02;;
6497;SDS011;3282;48.358;10.958;2022-12-18T03:52:33;67.85;;;20.30;;
6497;SDS011;3282;48.358;10.958;2022-12-18T03:55:06;55.72;;;18.70;;
6497;SDS011;3282;48.358;10.958;2022-12-18T03:57:34;58.30;;;18.95;;
6497;SDS011;3282;48.358;10.958;2022-12-18T04:00:07;58.33;;;19.05;;
6497;SDS011;3282;48.358;10.958;2022-12-18T04:02:54;60.97;;;19.05;;
6497;SDS011;3282;48.358;10.958;2022-12-18T04:05:31;59.53;;;18.25;;
6497;SDS011;3282;48.358;10.958;2022-12-18T04:08:00;61.60;;;19.77;;
6497;SDS011;3282;48.358;10.958;2022-12-18T04:10:29;61.08;;;19.85;;
6497;SDS011;3282;48.358;10.958;2022-12-18T04:12:58;58.67;;;18.70;;
6497;SDS011;3282;48.358;10.958;2022-12-18T04:15:25;62.95;;;20.70;;
6497;SDS011;3282;48.358;10.958;2022-12-18T04:17:52;63.55;;;19.95;;
6497;SDS011;3282;48.358;10.958;2022-12-18T04:20:22;62.55;;;20.95;;
6497;SDS011;3282;48.358;10.958;2022-12-18T04:22:48;61.00;;;20.75;;
6497;SDS011;3282;48.358;10.958;2022-12-18T04:25:17;62.10;;;20.17;;
6497;SDS011;3282;48.358;10.958;2022-12-18T04:28:03;66.68;;;20.92;;
6497;SDS011;3282;48.358;10.958;2022-12-18T04:30:31;65.60;;;20.73;;
6497;SDS011;3282;48.358;10.958;2022-12-18T04:32:58;65.38;;;20.65;;
6497;SDS011;3282;48.358;10.958;2022-12-18T04:35:25;63.63;;;20.85;;
6497;SDS011;3282;48.358;10.958;2022-12-18T04:37:51;71.57;;;21.02;;
6497;SDS011;3282;48.358;10.958;2022-12-18T04:40:18;63.10;;;19.98;;
6497;SDS011;3282;48.358;10.958;2022-12-18T04:42:46;66.25;;;21.38;;
6497;SDS011;3282;48.358;10.958;2022-12-18T04:45:14;64.75;;;20.73;;
6497;SDS011;3282;48.358;10.958;2022-12-18T04:47:40;63.63;;;20.85;;
6497;SDS011;3282;48.358;10.958;2022-12-18T04:50:07;60.75;;;20.33;;
6497;SDS011;3282;48.358;10.958;2022-12-18T04:52:34;64.65;;;20.42;;
6497;SDS011;3282;48.358;10.958;2022-12-18T04:55:00;62.25;;;21.98;;
6497;SDS011;3282;48.358;10.958;2022-12-18T04:57:27;68.65;;;21.80;;
6497;SDS011;3282;48.358;10.958;2022-12-18T04:59:53;62.13;;;20.75;;
6497;SDS011;3282;48.358;10.958;2022-12-18T05:02:20;66.05;;;20.92;;
6497;SDS011;3282;48.358;10.958;2022-12-18T05:04:46;62.45;;;21.15;;
6497;SDS011;3282;48.358;10.958;2022-12-18T05:07:13;67.00;;;20.95;;
6497;SDS011;3282;48.358;10.958;2022-12-18T05:09:40;65.38;;;21.20;;
6497;SDS011;3282;48.358;10.958;2022-12-18T05:12:06;61.00;;;20.05;;
6497;SDS011;3282;48.358;10.958;2022-12-18T05:14:33;60.92;;;19.73;;
6497;SDS011;3282;48.358;10.958;2022-12-18T05:17:00;70.93;;;20.85;;
6497;SDS011;3282;48.358;10.958;2022-12-18T05:19:26;63.00;;;20.90;;
6497;SDS011;3282;48.358;10.958;2022-12-18T05:21:53;59.63;;;19.65;;
6497;SDS011;3282;48.358;10.958;2022-12-18T05:24:19;65.00;;;20.55;;
6497;SDS011;3282;48.358;10.958;2022-12-18T05:26:46;57.30;;;19.58;;
6497;SDS011;3282;48.358;10.958;2022-12-18T05:29:12;64.13;;;20.60;;
6497;SDS011;3282;48.358;10.958;2022-12-18T05:31:39;60.78;;;20.02;;
6497;SDS011;3282;48.358;10.958;2022-12-18T05:34:08;60.50;;;19.65;;
6497;SDS011;3282;48.358;10.958;2022-12-18T05:36:36;63.28;;;20.63;;
6497;SDS011;3282;48.358;10.958;2022-12-18T05:39:03;61.95;;;21.30;;
6497;SDS011;3282;48.358;10.958;2022-12-18T05:41:31;60.63;;;19.83;;
6497;SDS011;3282;48.358;10.958;2022-12-18T05:43:58;64.47;;;19.73;;
6497;SDS011;3282;48.358;10.958;2022-12-18T05:46:24;61.78;;;20.70;;
6497;SDS011;3282;48.358;10.958;2022-12-18T05:48:52;65.97;;;20.70;;
6497;SDS011;3282;48.358;10.958;2022-12-18T05:51:20;70.78;;;20.15;;
6497;SDS011;3282;48.358;10.958;2022-12-18T05:53:47;61.33;;;19.48;;
6497;SDS011;3282;48.358;10.958;2022-12-18T05:56:16;68.20;;;20.77;;
6497;SDS011;3282;48.358;10.958;2022-12-18T05:58:45;67.20;;;20.50;;
6497;SDS011;3282;48.358;10.958;2022-12-18T06:01:19;63.72;;;19.23;;
6497;SDS011;3282;48.358;10.958;2022-12-18T06:03:49;62.95;;;20.00;;
6497;SDS011;3282;48.358;10.958;2022-12-18T06:06:17;56.45;;;18.98;;
6497;SDS011;3282;48.358;10.958;2022-12-18T06:08:45;56.28;;;18.40;;
6497;SDS011;3282;48.358;10.958;2022-12-18T06:11:12;54.47;;;19.30;;
6497;SDS011;3282;48.358;10.958;2022-12-18T06:13:39;56.75;;;19.88;;
6497;SDS011;3282;48.358;10.958;2022-12-18T06:16:07;65.88;;;20.50;;
6497;SDS011;3282;48.358;10.958;2022-12-18T06:18:34;64.60;;;21.25;;
6497;SDS011;3282;48.358;10.958;2022-12-18T06:21:00;63.13;;;20.90;;
6497;SDS011;3282;48.358;10.958;2022-12-18T06:23:28;57.35;;;19.73;;
6497;SDS011;3282;48.358;10.958;2022-12-18T06:25:54;62.10;;;20.70;;
6497;SDS011;3282;48.358;10.958;2022-12-18T06:28:21;62.28;;;20.23;;
6497;SDS011;3282;48.358;10.958;2022-12-18T06:30:48;55.95;;;18.42;;
6497;SDS011;3282;48.358;10.958;2022-12-18T06:33:15;60.60;;;20.35;;
6497;SDS011;3282;48.358;10.958;2022-12-18T06:35:42;57.30;;;19.63;;
6497;SDS011;3282;48.358;10.958;2022-12-18T06:38:08;66.72;;;19.85;;
6497;SDS011;3282;48.358;10.958;2022-12-18T06:40:36;62.67;;;20.80;;
6497;SDS011;3282;48.358;10.958;2022-12-18T06:43:04;56.10;;;19.15;;
6497;SDS011;3282;48.358;10.958;2022-12-18T06:45:31;54.25;;;19.35;;
6497;SDS011;3282;48.358;10.958;2022-12-18T06:47:57;62.33;;;21.55;;
6497;SDS011;3282;48.358;10.958;2022-12-18T06:50:24;65.25;;;21.92;;
6497;SDS011;3282;48.358;10.958;2022-12-18T06:52:51;64.35;;;21.10;;
6497;SDS011;3282;48.358;10.958;2022-12-18T06:55:17;59.30;;;19.65;;
6497;SDS011;3282;48.358;10.958;2022-12-18T06:57:44;65.70;;;20.70;;
6497;SDS011;3282;48.358;10.958;2022-12-18T07:00:11;60.00;;;20.60;;
6497;SDS011;3282;48.358;10.958;2022-12-18T07:02:38;62.72;;;20.67;;
6497;SDS011;3282;48.358;10.958;2022-12-18T07:05:05;58.92;;;20.27;;
6497;SDS011;3282;48.358;10.958;2022-12-18T07:07:36;55.15;;;20.30;;
6497;SDS011;3282;48.358;10.958;2022-12-18T07:10:03;56.40;;;18.80;;
6497;SDS011;3282;48.358;10.958;2022-12-18T07:12:30;51.95;;;19.10;;
6497;SDS011;3282;48.358;10.958;2022-12-18T07:14:56;49.33;;;17.25;;
6497;SDS011;3282;48.358;10.958;2022-12-18T07:17:23;54.97;;;19.17;;
6497;SDS011;3282;48.358;10.958;2022-12-18T07:19:50;52.72;;;18.50;;
6497;SDS011;3282;48.358;10.958;2022-12-18T07:22:16;52.35;;;19.27;;
6497;SDS011;3282;48.358;10.958;2022-12-18T07:24:43;52.67;;;19.23;;
6497;SDS011;3282;48.358;10.958;2022-12-18T07:27:09;57.90;;;20.02;;
6497;SDS011;3282;48.358;10.958;2022-12-18T07:29:36;55.83;;;19.13;;
6497;SDS011;3282;48.358;10.958;2022-12-18T07:32:03;53.90;;;18.80;;
6497;SDS011;3282;48.358;10.958;2022-12-18T07:34:30;52.45;;;18.92;;
6497;SDS011;3282;48.358;10.958;2022-12-18T07:36:56;55.10;;;18.52;;
6497;SDS011;3282;48.358;10.958;2022-12-18T07:39:23;51.88;;;18.08;;
6497;SDS011;3282;48.358;10.958;2022-12-18T07:41:50;48.10;;;17.92;;
6497;SDS011;3282;48.358;10.958;2022-12-18T07:44:35;44.40;;;16.88;;
6497;SDS011;3282;48.358;10.958;2022-12-18T07:47:02;51.25;;;17.73;;
6497;SDS011;3282;48.358;10.958;2022-12-18T07:49:35;49.88;;;18.33;;
6497;SDS011;3282;48.358;10.958;2022-12-18T07:52:02;56.95;;;18.30;;
6497;SDS011;3282;48.358;10.958;2022-12-18T07:54:30;51.25;;;18.70;;
6497;SDS011;3282;48.358;10.958;2022-12-18T07:56:56;54.70;;;18.60;;
6497;SDS011;3282;48.358;10.958;2022-12-18T07:59:23;52.50;;;18.35;;
6497;SDS011;3282;48.358;10.958;2022-12-18T08:01:49;46.95;;;17.50;;
6497;SDS011;3282;48.358;10.958;2022-12-18T08:04:16;52.67;;;18.13;;
6497;SDS011;3282;48.358;10.958;2022-12-18T08:06:43;53.55;;;18.50;;
6497;SDS011;3282;48.358;10.958;2022-12-18T08:09:13;59.25;;;22.63;;
6497;SDS011;3282;48.358;10.958;2022-12-18T08:11:40;46.92;;;18.23;;
6497;SDS011;3282;48.358;10.958;2022-12-18T08:14:06;53.17;;;19.15;;
6497;SDS011;3282;48.358;10.958;2022-12-18T08:16:34;52.50;;;19.52;;
6497;SDS011;3282;48.358;10.958;2022-12-18T08:19:01;54.90;;;17.83;;
6497;SDS011;3282;48.358;10.958;2022-12-18T08:21:29;53.70;;;19.15;;
6497;SDS011;3282;48.358;10.958;2022-12-18T08:23:58;45.00;;;17.83;;
6497;SDS011;3282;48.358;10.958;2022-12-18T08:26:27;56.78;;;20.73;;
6497;SDS011;3282;48.358;10.958;2022-12-18T08:28:56;52.45;;;20.67;;
6497;SDS011;3282;48.358;10.958;2022-12-18T08:31:25;53.20;;;18.63;;
6497;SDS011;3282;48.358;10.958;2022-12-18T08:33:52;55.47;;;21.05;;
6497;SDS011;3282;48.358;10.958;2022-12-18T08:36:21;54.33;;;19.92;;
6497;SDS011;3282;48.358;10.958;2022-12-18T08:38:49;55.88;;;22.10;;
6497;SDS011;3282;48.358;10.958;2022-12-18T08:41:16;56.70;;;20.45;;
6497;SDS011;3282;48.358;10.958;2022-12-18T08:43:43;57.15;;;20.83;;
6497;SDS011;3282;48.358;10.958;2022-12-18T08:46:32;57.67;;;22.50;;
6497;SDS011;3282;48.358;10.958;2022-12-18T08:49:04;53.90;;;20.35;;
6497;SDS011;3282;48.358;10.958;2022-12-18T08:51:33;53.00;;;20.60;;
6497;SDS011;3282;48.358;10.958;2022-12-18T08:54:00;53.63;;;20.98;;
6497;SDS011;3282;48.358;10.958;2022-12-18T08:56:28;56.65;;;21.08;;
6497;SDS011;3282;48.358;10.958;2022-12-18T08:58:56;55.03;;;21.77;;
6497;SDS011;3282;48.358;10.958;2022-12-18T09:01:23;70.38;;;27.42;;
6497;SDS011;3282;48.358;10.958;2022-12-18T09:03:50;65.43;;;25.63;;
6497;SDS011;3282;48.358;10.958;2022-12-18T09:06:18;52.60;;;20.27;;
6497;SDS011;3282;48.358;10.958;2022-12-18T09:08:45;49.03;;;19.52;;
6497;SDS011;3282;48.358;10.958;2022-12-18T09:11:14;53.10;;;19.80;;
6497;SDS011;3282;48.358;10.958;2022-12-18T09:16:13;51.42;;;17.73;;
6497;SDS011;3282;48.358;10.958;2022-12-18T09:18:39;49.58;;;18.77;;
6497;SDS011;3282;48.358;10.958;2022-12-18T09:21:11;60.10;;;22.30;;
6497;SDS011;3282;48.358;10.958;2022-12-18T09:23:43;60.10;;;24.13;;
6497;SDS011;3282;48.358;10.958;2022-12-18T09:26:10;58.35;;;22.08;;
6497;SDS011;3282;48.358;10.958;2022-12-18T09:28:36;51.92;;;19.83;;
6497;SDS011;3282;48.358;10.958;2022-12-18T09:31:05;67.43;;;28.15;;
6497;SDS011;3282;48.358;10.958;2022-12-18T09:33:37;80.68;;;27.75;;
